createdAt,value
2018-11-28T00:00:04.381Z,18.87
2018-11-28T00:02:32.497Z,18.97
2018-11-28T00:05:00.631Z,20.75
2018-11-28T00:07:28.758Z,21.95
2018-11-28T00:09:56.871Z,19.30
2018-11-28T00:12:24.999Z,18.90
2018-11-28T00:14:53.098Z,17.50
2018-11-28T00:17:21.206Z,20.50
2018-11-28T00:19:49.340Z,18.95
2018-11-28T00:22:17.434Z,18.80
2018-11-28T00:24:45.526Z,19.60
2018-11-28T00:27:13.648Z,19.03
2018-11-28T00:29:41.757Z,18.47
2018-11-28T00:32:09.870Z,18.10
2018-11-28T00:34:37.988Z,18.95
2018-11-28T00:37:06.294Z,18.32
2018-11-28T00:39:34.559Z,20.32
2018-11-28T00:42:02.661Z,17.73
2018-11-28T00:44:30.767Z,18.50
2018-11-28T00:46:58.878Z,19.70
2018-11-28T00:49:27.006Z,17.82
2018-11-28T00:51:55.118Z,15.90
2018-11-28T00:54:23.246Z,17.77
2018-11-28T00:56:51.362Z,17.70
2018-11-28T00:59:19.476Z,17.20
2018-11-28T01:01:47.587Z,20.37
2018-11-28T01:04:15.712Z,18.87
2018-11-28T01:06:43.821Z,17.00
2018-11-28T01:09:11.950Z,18.50
2018-11-28T01:11:40.115Z,17.55
2018-11-28T01:14:08.330Z,19.20
2018-11-28T01:16:36.434Z,18.00
2018-11-28T01:19:04.841Z,17.05
2018-11-28T01:21:33.033Z,17.40
2018-11-28T01:24:01.186Z,17.65
2018-11-28T01:26:29.321Z,17.82
2018-11-28T01:28:57.453Z,21.20
2018-11-28T01:31:25.586Z,21.77
2018-11-28T01:33:53.705Z,19.45
2018-11-28T01:36:21.838Z,18.62
2018-11-28T01:38:49.949Z,19.75
2018-11-28T01:41:18.075Z,18.70
2018-11-28T01:43:46.189Z,17.98
2018-11-28T01:46:14.347Z,18.73
2018-11-28T01:48:42.454Z,17.90
2018-11-28T01:51:10.578Z,18.42
2018-11-28T01:53:38.693Z,18.83
2018-11-28T01:56:06.818Z,19.92
2018-11-28T01:58:34.947Z,19.17
2018-11-28T02:01:03.077Z,21.87
2018-11-28T02:03:31.178Z,19.30
2018-11-28T02:05:59.298Z,21.65
2018-11-28T02:08:27.426Z,21.35
2018-11-28T02:10:55.623Z,21.07
2018-11-28T02:13:23.741Z,21.82
2018-11-28T02:15:51.862Z,19.67
2018-11-28T02:18:19.986Z,20.08
2018-11-28T02:20:48.110Z,19.67
2018-11-28T02:23:16.268Z,19.00
2018-11-28T02:25:44.403Z,18.52
2018-11-28T02:28:12.538Z,19.12
2018-11-28T02:30:40.694Z,20.05
2018-11-28T02:33:08.813Z,18.75
2018-11-28T02:35:36.946Z,19.35
2018-11-28T02:38:05.183Z,18.52
2018-11-28T02:40:33.310Z,18.98
2018-11-28T02:43:01.441Z,18.00
2018-11-28T02:45:29.561Z,18.95
2018-11-28T02:47:57.693Z,21.45
2018-11-28T02:50:25.822Z,18.10
2018-11-28T02:52:53.934Z,18.57
2018-11-28T02:55:23.489Z,19.37
2018-11-28T02:57:51.818Z,19.52
2018-11-28T03:00:23.907Z,17.52
2018-11-28T03:02:52.100Z,19.67
2018-11-28T03:05:20.383Z,17.73
2018-11-28T03:07:48.506Z,20.85
2018-11-28T03:10:20.509Z,18.05
2018-11-28T03:12:48.635Z,18.95
2018-11-28T03:15:37.794Z,18.65
2018-11-28T03:18:06.901Z,17.45
2018-11-28T03:20:35.034Z,19.98
2018-11-28T03:23:03.148Z,19.15
2018-11-28T03:25:31.271Z,18.62
2018-11-28T03:27:59.407Z,18.85
2018-11-28T03:30:27.547Z,19.40
2018-11-28T03:32:55.670Z,18.75
2018-11-28T03:35:23.771Z,18.25
2018-11-28T03:37:51.882Z,18.40
2018-11-28T03:40:20.013Z,18.65
2018-11-28T03:42:48.129Z,19.17
2018-11-28T03:45:16.611Z,20.48
2018-11-28T03:47:45.341Z,17.77
2018-11-28T03:50:15.263Z,18.07
2018-11-28T03:52:43.377Z,18.48
2018-11-28T03:55:13.248Z,18.48
2018-11-28T03:57:41.545Z,17.30
2018-11-28T04:00:14.810Z,18.48
2018-11-28T04:02:42.958Z,19.00
2018-11-28T04:05:11.563Z,17.65
2018-11-28T04:07:39.715Z,17.50
2018-11-28T04:10:10.185Z,21.12
2018-11-28T04:12:38.868Z,18.67
2018-11-28T04:15:10.731Z,18.32
2018-11-28T04:17:38.865Z,17.10
2018-11-28T04:20:12.680Z,17.65
2018-11-28T04:22:40.818Z,16.80
2018-11-28T04:25:09.960Z,19.27
2018-11-28T04:27:38.089Z,18.45
2018-11-28T04:30:10.418Z,19.02
2018-11-28T04:32:38.619Z,18.57
2018-11-28T04:35:08.506Z,19.12
2018-11-28T04:37:36.627Z,19.02
2018-11-28T04:40:07.707Z,19.92
2018-11-28T04:42:35.839Z,18.92
2018-11-28T04:45:04.001Z,19.55
2018-11-28T04:47:32.115Z,18.48
2018-11-28T04:50:00.240Z,18.15
2018-11-28T04:52:28.366Z,17.62
2018-11-28T04:54:56.484Z,18.17
2018-11-28T04:57:24.614Z,19.73
2018-11-28T04:59:52.741Z,22.22
2018-11-28T05:02:20.845Z,19.12
2018-11-28T05:04:48.967Z,19.35
2018-11-28T05:07:25.433Z,17.85
2018-11-28T05:09:53.593Z,17.12
2018-11-28T05:12:21.976Z,20.12
2018-11-28T05:14:50.453Z,17.23
2018-11-28T05:17:18.762Z,18.90
2018-11-28T05:19:46.867Z,20.17
2018-11-28T05:22:15.001Z,19.52
2018-11-28T05:24:43.148Z,17.95
2018-11-28T05:27:11.301Z,18.30
2018-11-28T05:29:39.439Z,17.62
2018-11-28T05:32:08.215Z,18.75
2018-11-28T05:34:36.415Z,18.48
2018-11-28T05:37:04.962Z,17.52
2018-11-28T05:39:39.433Z,17.85
2018-11-28T05:42:07.592Z,18.15
2018-11-28T05:44:36.574Z,19.80
2018-11-28T05:47:04.747Z,17.62
2018-11-28T05:49:32.919Z,19.15
2018-11-28T05:52:01.073Z,17.70
2018-11-28T05:54:29.233Z,17.75
2018-11-28T05:56:57.395Z,18.07
2018-11-28T05:59:27.524Z,18.27
2018-11-28T06:01:53.722Z,18.02
2018-11-28T06:04:21.866Z,17.87
2018-11-28T06:06:50.019Z,16.85
2018-11-28T06:09:18.172Z,18.15
2018-11-28T06:11:46.309Z,19.25
2018-11-28T06:14:14.463Z,17.87
2018-11-28T06:16:42.615Z,18.90
2018-11-28T06:19:10.778Z,16.95
2018-11-28T06:21:39.071Z,19.30
2018-11-28T06:24:07.210Z,17.90
2018-11-28T06:26:35.419Z,19.15
2018-11-28T06:29:03.569Z,18.25
2018-11-28T06:31:31.705Z,17.98
2018-11-28T06:33:59.873Z,18.10
2018-11-28T06:36:28.043Z,18.23
2018-11-28T06:38:56.194Z,18.80
2018-11-28T06:41:24.363Z,18.05
2018-11-28T06:43:52.525Z,18.42
2018-11-28T06:46:20.692Z,18.05
2018-11-28T06:48:48.917Z,18.75
2018-11-28T06:51:17.071Z,18.45
2018-11-28T06:53:45.222Z,18.30
2018-11-28T06:56:13.362Z,18.30
2018-11-28T06:58:41.522Z,19.10
2018-11-28T07:01:09.675Z,17.95
2018-11-28T07:03:37.834Z,18.25
2018-11-28T07:06:05.996Z,17.27
2018-11-28T07:08:34.143Z,16.90
2018-11-28T07:11:02.281Z,18.57
2018-11-28T07:13:30.482Z,16.93
2018-11-28T07:15:58.638Z,18.02
2018-11-28T07:18:37.974Z,17.95
2018-11-28T07:21:06.110Z,16.93
2018-11-28T07:23:34.262Z,18.82
2018-11-28T07:26:02.389Z,19.90
2018-11-28T07:28:31.060Z,17.20
2018-11-28T07:30:59.226Z,20.00
2018-11-28T07:33:27.422Z,18.20
2018-11-28T07:35:55.559Z,18.35
2018-11-28T07:38:23.707Z,17.92
2018-11-28T07:40:51.851Z,16.52
2018-11-28T07:43:19.988Z,17.80
2018-11-28T07:45:50.427Z,17.35
2018-11-28T07:48:18.582Z,17.07
2018-11-28T07:50:47.499Z,17.00
2018-11-28T07:53:14.916Z,20.55
2018-11-28T07:55:43.046Z,18.10
2018-11-28T07:58:11.204Z,18.23
2018-11-28T08:00:39.356Z,19.92
2018-11-28T08:03:08.800Z,19.20
2018-11-28T08:05:38.166Z,18.17
2018-11-28T08:08:08.089Z,19.07
2018-11-28T08:10:36.280Z,17.92
2018-11-28T08:13:04.488Z,18.87
2018-11-28T08:15:32.640Z,18.65
2018-11-28T08:18:00.789Z,21.93
2018-11-28T08:20:29.083Z,22.22
2018-11-28T08:22:57.233Z,22.62
2018-11-28T08:25:27.895Z,24.25
2018-11-28T08:27:53.544Z,23.42
2018-11-28T08:30:23.697Z,27.00
2018-11-28T08:32:52.080Z,25.17
2018-11-28T08:35:20.262Z,27.37
2018-11-28T08:37:48.405Z,29.48
2018-11-28T08:40:20.907Z,30.75
2018-11-28T08:42:49.112Z,29.20
2018-11-28T08:45:18.284Z,29.50
2018-11-28T08:47:47.395Z,32.28
2018-11-28T08:50:17.869Z,32.08
2018-11-28T08:52:45.980Z,29.60
2018-11-28T08:55:14.380Z,32.53
2018-11-28T08:57:42.602Z,30.10
2018-11-28T09:00:17.058Z,31.95
2018-11-28T09:02:46.257Z,29.95
2018-11-28T09:05:14.724Z,34.40
2018-11-28T09:07:42.915Z,32.53
2018-11-28T09:10:13.909Z,31.15
2018-11-28T09:12:42.001Z,31.00
2018-11-28T09:15:16.370Z,32.38
2018-11-28T09:17:44.517Z,31.30
2018-11-28T09:20:13.619Z,31.43
2018-11-28T09:22:41.782Z,33.30
2018-11-28T09:25:12.110Z,33.03
2018-11-28T09:27:40.281Z,31.10
2018-11-28T09:30:11.121Z,31.17
2018-11-28T09:32:39.268Z,30.43
2018-11-28T09:35:08.497Z,32.00
2018-11-28T09:37:36.655Z,30.00
2018-11-28T09:40:08.535Z,31.40
2018-11-28T09:42:36.777Z,31.90
2018-11-28T09:45:05.287Z,33.13
2018-11-28T09:47:33.461Z,32.70
2018-11-28T09:50:01.595Z,31.60
2018-11-28T09:52:29.892Z,30.20
2018-11-28T09:54:58.039Z,33.63
2018-11-28T09:57:26.178Z,33.53
2018-11-28T09:59:54.306Z,32.33
2018-11-28T10:02:22.449Z,30.07
2018-11-28T10:04:50.573Z,29.60
2018-11-28T10:07:18.723Z,29.80
2018-11-28T10:09:46.917Z,32.50
2018-11-28T10:12:15.074Z,30.87
2018-11-28T10:14:43.238Z,32.97
2018-11-28T10:17:11.388Z,31.37
2018-11-28T10:19:39.534Z,33.30
2018-11-28T10:22:07.655Z,29.63
2018-11-28T10:24:35.794Z,31.80
2018-11-28T10:27:03.941Z,31.60
2018-11-28T10:29:32.071Z,30.00
2018-11-28T10:32:00.213Z,30.63
2018-11-28T10:34:29.578Z,28.10
2018-11-28T10:36:56.528Z,26.87
2018-11-28T10:39:24.762Z,27.87
2018-11-28T10:41:52.967Z,28.83
2018-11-28T10:44:21.116Z,28.00
2018-11-28T10:46:49.281Z,27.90
2018-11-28T10:49:17.434Z,28.53
2018-11-28T10:51:50.278Z,27.40
2018-11-28T10:54:13.743Z,29.17
2018-11-28T10:56:41.874Z,27.80
2018-11-28T10:59:10.015Z,26.90
2018-11-28T11:01:43.490Z,27.70
2018-11-28T11:04:15.133Z,26.37
2018-11-28T11:06:49.103Z,28.00
2018-11-28T11:10:24.147Z,27.13
2018-11-28T11:12:57.818Z,23.30
2018-11-28T11:15:25.983Z,24.20
2018-11-28T11:17:54.244Z,23.40
2018-11-28T11:20:22.430Z,22.83
2018-11-28T11:22:50.571Z,22.80
2018-11-28T11:25:18.738Z,23.63
2018-11-28T11:27:46.874Z,23.70
2018-11-28T11:30:15.104Z,21.60
2018-11-28T11:32:43.256Z,21.33
2018-11-28T11:35:11.400Z,20.37
2018-11-28T11:37:39.551Z,20.57
2018-11-28T11:40:10.258Z,22.53
2018-11-28T11:42:38.496Z,19.60
2018-11-28T11:45:09.233Z,20.80
2018-11-28T11:47:37.373Z,21.00
2018-11-28T11:50:09.511Z,22.80
2018-11-28T11:52:37.664Z,20.30
2018-11-28T11:55:07.146Z,20.87
2018-11-28T11:57:35.287Z,20.80
2018-11-28T12:00:03.712Z,19.83
2018-11-28T12:02:31.888Z,20.50
2018-11-28T12:05:00.049Z,22.97
2018-11-28T12:07:28.203Z,21.33
2018-11-28T12:09:56.374Z,19.33
2018-11-28T12:12:24.511Z,23.33
2018-11-28T12:14:52.676Z,22.00
2018-11-28T12:17:20.812Z,22.00
2018-11-28T12:19:48.975Z,22.90
2018-11-28T12:22:17.132Z,23.43
2018-11-28T12:24:45.287Z,20.80
2018-11-28T12:27:13.442Z,25.30
2018-11-28T12:29:41.583Z,22.77
2018-11-28T12:32:09.731Z,24.27
2018-11-28T12:34:37.895Z,24.60
2018-11-28T12:37:06.619Z,25.37
2018-11-28T12:39:34.778Z,26.30
2018-11-28T12:42:02.946Z,26.53
2018-11-28T12:44:31.085Z,26.00
2018-11-28T12:46:59.233Z,28.13
2018-11-28T12:49:27.380Z,25.80
2018-11-28T12:51:55.542Z,26.40
2018-11-28T12:54:23.674Z,26.60
2018-11-28T12:56:51.821Z,24.07
2018-11-28T13:02:10.435Z,23.30
2018-11-28T13:04:38.562Z,23.63
2018-11-28T13:07:06.689Z,24.37
2018-11-28T13:09:34.890Z,24.00
2018-11-28T13:12:03.022Z,23.63
2018-11-28T13:14:31.129Z,23.83
2018-11-28T13:16:59.264Z,25.63
2018-11-28T13:19:27.379Z,22.63
2018-11-28T13:21:55.482Z,23.60
2018-11-28T13:24:23.598Z,21.40
2018-11-28T13:26:51.738Z,21.70
2018-11-28T13:29:19.855Z,26.10
2018-11-28T13:31:47.965Z,24.20
2018-11-28T13:34:16.094Z,22.60
2018-11-28T13:36:44.246Z,24.27
2018-11-28T13:39:12.401Z,23.53
2018-11-28T13:41:40.531Z,23.83
2018-11-28T13:44:08.685Z,22.17
2018-11-28T13:46:36.797Z,22.27
2018-11-28T13:49:05.287Z,21.90
2018-11-28T13:51:39.835Z,23.57
2018-11-28T13:54:21.038Z,23.10
2018-11-28T13:59:04.221Z,23.50
2018-11-28T14:01:32.309Z,20.70
2018-11-28T14:04:00.420Z,21.50
2018-11-28T14:06:28.507Z,22.50
2018-11-28T14:08:56.617Z,21.83
2018-11-28T14:11:24.789Z,21.23
2018-11-28T14:13:52.927Z,24.00
2018-11-28T14:16:21.049Z,23.70
2018-11-28T14:18:49.174Z,21.97
2018-11-28T14:21:17.299Z,23.87
2018-11-28T14:23:45.426Z,23.40
2018-11-28T14:26:13.536Z,24.20
2018-11-28T14:28:41.681Z,26.07
2018-11-28T14:31:09.818Z,24.77
2018-11-28T14:33:37.952Z,25.00
2018-11-28T14:36:06.222Z,23.83
2018-11-28T14:38:34.293Z,23.17
2018-11-28T14:41:02.516Z,23.60
2018-11-28T14:43:30.638Z,25.27
2018-11-28T14:45:58.869Z,24.13
2018-11-28T14:48:27.000Z,24.70
2018-11-28T14:50:55.160Z,24.20
2018-11-28T14:53:23.257Z,24.63
2018-11-28T14:55:51.396Z,23.20
2018-11-28T14:58:19.516Z,23.20
2018-11-28T15:00:47.643Z,23.83
2018-11-28T15:03:18.014Z,27.90
2018-11-28T15:06:28.843Z,24.83
2018-11-28T15:09:02.369Z,31.53
2018-11-28T15:11:30.571Z,29.50
2018-11-28T15:13:58.761Z,26.63
2018-11-28T15:16:26.945Z,29.17
2018-11-28T15:18:55.069Z,25.60
2018-11-28T15:21:23.203Z,26.60
2018-11-28T15:23:51.341Z,24.90
2018-11-28T15:26:19.462Z,25.57
2018-11-28T15:28:47.761Z,29.70
2018-11-28T15:31:15.875Z,27.40
2018-11-28T15:33:44.000Z,29.13
2018-11-28T15:36:12.157Z,34.93
2018-11-28T15:38:40.292Z,27.60
2018-11-28T15:41:08.413Z,25.47
2018-11-28T15:43:36.568Z,28.80
2018-11-28T15:46:05.322Z,27.73
2018-11-28T15:48:33.717Z,28.90
2018-11-28T15:51:01.852Z,26.33
2018-11-28T15:53:29.955Z,31.53
2018-11-28T15:55:58.076Z,26.00
2018-11-28T15:58:26.172Z,29.43
2018-11-28T16:00:54.292Z,31.53
2018-11-28T16:03:22.388Z,27.90
2018-11-28T16:05:50.493Z,26.67
2018-11-28T16:08:18.596Z,24.23
2018-11-28T16:10:46.741Z,21.43
2018-11-28T16:13:16.251Z,22.50
2018-11-28T16:15:47.831Z,21.80
2018-11-28T16:18:16.050Z,20.97
2018-11-28T16:20:44.213Z,25.67
2018-11-28T16:23:12.360Z,25.97
2018-11-28T16:25:40.476Z,22.90
2018-11-28T16:28:08.986Z,23.57
2018-11-28T16:30:37.108Z,21.80
2018-11-28T16:33:06.153Z,24.80
2018-11-28T16:35:34.578Z,23.40
2018-11-28T16:38:02.712Z,26.50
2018-11-28T16:40:30.821Z,25.50
2018-11-28T16:42:59.033Z,25.37
2018-11-28T16:45:27.262Z,26.30
2018-11-28T16:47:55.410Z,25.80
2018-11-28T16:50:23.519Z,27.63
2018-11-28T16:52:51.651Z,25.90
2018-11-28T16:55:19.774Z,24.07
2018-11-28T16:57:51.520Z,26.60
2018-11-28T17:00:21.097Z,26.73
2018-11-28T17:02:49.697Z,28.47
2018-11-28T17:05:18.880Z,27.87
2018-11-28T17:07:47.378Z,30.17
2018-11-28T17:10:16.556Z,27.30
2018-11-28T17:12:45.652Z,28.70
2018-11-28T17:15:14.961Z,27.90
2018-11-28T17:17:43.332Z,28.23
2018-11-28T17:20:19.901Z,27.47
2018-11-28T17:22:48.708Z,27.23
2018-11-28T17:25:20.345Z,28.07
2018-11-28T17:27:48.490Z,25.27
2018-11-28T17:30:19.050Z,24.90
2018-11-28T17:32:46.257Z,24.40
2018-11-28T17:35:14.650Z,27.63
2018-11-28T17:37:42.833Z,26.37
2018-11-28T17:40:12.382Z,25.93
2018-11-28T17:42:40.976Z,24.90
2018-11-28T17:45:10.473Z,25.40
2018-11-28T17:47:38.594Z,26.00
2018-11-28T17:50:09.473Z,27.50
2018-11-28T17:52:37.619Z,26.47
2018-11-28T17:55:08.489Z,31.60
2018-11-28T17:57:36.672Z,27.43
2018-11-28T18:00:07.705Z,26.10
2018-11-28T18:02:35.903Z,30.90
2018-11-28T18:05:04.349Z,26.27
2018-11-28T18:07:32.495Z,24.23
2018-11-28T18:10:00.620Z,25.93
2018-11-28T18:12:28.871Z,24.30
2018-11-28T18:14:57.044Z,28.53
2018-11-28T18:17:25.190Z,24.50
2018-11-28T18:19:53.375Z,21.87
2018-11-28T18:22:21.560Z,23.87
2018-11-28T18:24:49.661Z,21.90
2018-11-28T18:27:17.870Z,22.70
2018-11-28T18:29:45.978Z,22.27
2018-11-28T18:32:14.197Z,20.50
2018-11-28T18:34:42.407Z,23.10
2018-11-28T18:37:10.558Z,23.00
2018-11-28T18:39:38.738Z,23.67
2018-11-28T18:42:06.949Z,21.53
2018-11-28T18:44:35.068Z,22.50
2018-11-28T18:47:03.280Z,21.10
2018-11-28T18:49:31.398Z,21.10
2018-11-28T18:51:59.509Z,24.00
2018-11-28T18:54:27.748Z,23.93
2018-11-28T18:56:55.966Z,25.40
2018-11-28T18:59:24.149Z,26.67
2018-11-28T19:01:52.277Z,26.93
2018-11-28T19:04:20.404Z,30.17
2018-11-28T19:06:48.536Z,28.67
2018-11-28T19:09:22.109Z,34.07
2018-11-28T19:11:50.237Z,35.40
2018-11-28T19:14:18.392Z,30.20
2018-11-28T19:16:46.486Z,30.33
2018-11-28T19:19:14.603Z,24.40
2018-11-28T19:21:42.746Z,22.67
2018-11-28T19:24:10.851Z,24.13
2018-11-28T19:26:38.990Z,23.67
2018-11-28T19:29:07.085Z,23.63
2018-11-28T19:31:35.205Z,21.93
2018-11-28T19:34:03.349Z,21.63
2018-11-28T19:36:31.446Z,26.80
2018-11-28T19:38:59.554Z,25.77
2018-11-28T19:41:27.784Z,20.40
2018-11-28T19:43:55.916Z,19.00
2018-11-28T19:46:24.234Z,16.00
2018-11-28T19:48:52.328Z,25.30
2018-11-28T19:51:20.429Z,19.53
2018-11-28T19:53:48.547Z,23.17
2018-11-28T19:56:16.632Z,21.87
2018-11-28T19:58:44.736Z,13.13
2018-11-28T20:01:12.832Z,12.57
2018-11-28T20:03:40.932Z,12.57
2018-11-28T20:06:11.870Z,12.27
2018-11-28T20:08:40.009Z,11.70
2018-11-28T20:11:08.160Z,11.13
2018-11-28T20:13:36.342Z,11.30
2018-11-28T20:16:04.467Z,11.07
2018-11-28T20:18:32.580Z,11.23
2018-11-28T20:21:00.757Z,9.83
2018-11-28T20:23:28.992Z,11.10
2018-11-28T20:25:57.145Z,10.83
2018-11-28T20:28:25.273Z,13.27
2018-11-28T20:30:53.394Z,11.70
2018-11-28T20:33:21.620Z,12.73
2018-11-28T20:35:50.218Z,11.60
2018-11-28T20:38:20.933Z,12.17
2018-11-28T20:40:49.137Z,11.33
2018-11-28T20:43:17.264Z,11.60
2018-11-28T20:45:45.422Z,12.00
2018-11-28T20:48:13.557Z,13.30
2018-11-28T20:50:42.484Z,12.27
2018-11-28T20:53:12.240Z,12.70
2018-11-28T20:55:40.922Z,13.30
2018-11-28T20:58:09.046Z,12.10
2018-11-28T21:00:37.218Z,14.60
2018-11-28T21:03:05.758Z,13.10
2018-11-28T21:05:33.903Z,11.97
2018-11-28T21:08:02.021Z,10.77
2018-11-28T21:10:36.883Z,10.90
2018-11-28T21:13:06.851Z,10.17
2018-11-28T21:15:34.990Z,9.50
2018-11-28T21:18:03.117Z,11.33
2018-11-28T21:20:31.227Z,10.10
2018-11-28T21:23:00.656Z,10.20
2018-11-28T21:25:28.772Z,10.03
2018-11-28T21:27:56.929Z,11.70
2018-11-28T21:30:25.067Z,10.87
2018-11-28T21:32:54.096Z,11.87
2018-11-28T21:35:30.392Z,12.10
2018-11-28T21:37:59.073Z,11.43
2018-11-28T21:40:27.341Z,10.57
2018-11-28T21:42:55.530Z,10.93
2018-11-28T21:45:24.272Z,11.97
2018-11-28T21:47:52.397Z,10.77
2018-11-28T21:50:20.514Z,9.60
2018-11-28T21:52:48.737Z,10.63
2018-11-28T21:55:18.809Z,9.43
2018-11-28T21:57:46.965Z,11.73
2018-11-28T22:00:17.922Z,9.67
2018-11-28T22:02:46.037Z,9.10
2018-11-28T22:05:14.988Z,10.50
2018-11-28T22:07:43.087Z,10.80
2018-11-28T22:10:16.049Z,8.37
2018-11-28T22:12:44.198Z,8.17
2018-11-28T22:15:13.316Z,9.53
2018-11-28T22:17:42.664Z,9.90
2018-11-28T22:20:11.712Z,8.00
2018-11-28T22:22:39.809Z,8.43
2018-11-28T22:25:13.185Z,9.40
2018-11-28T22:27:41.303Z,9.20
2018-11-28T22:30:11.069Z,9.23
2018-11-28T22:32:39.249Z,9.60
2018-11-28T22:35:07.829Z,9.23
2018-11-28T22:37:35.949Z,8.40
2018-11-28T22:40:08.409Z,10.30
2018-11-28T22:42:36.506Z,8.23
2018-11-28T22:45:06.164Z,8.30
2018-11-28T22:47:34.273Z,8.40
2018-11-28T22:50:02.367Z,7.80
2018-11-28T22:52:30.459Z,8.53
2018-11-28T22:54:58.554Z,8.13
2018-11-28T22:57:26.667Z,8.97
2018-11-28T22:59:54.783Z,11.53
2018-11-28T23:02:55.309Z,12.63
2018-11-28T23:05:27.066Z,13.13
2018-11-28T23:07:55.917Z,13.70
2018-11-28T23:10:24.017Z,12.47
2018-11-28T23:12:52.157Z,14.00
2018-11-28T23:15:20.307Z,9.83
2018-11-28T23:17:48.396Z,9.70
2018-11-28T23:20:16.522Z,9.30
2018-11-28T23:22:44.642Z,9.40
2018-11-28T23:25:12.871Z,8.60
2018-11-28T23:27:40.992Z,9.63
2018-11-28T23:30:14.313Z,7.90
2018-11-28T23:32:42.454Z,8.17
2018-11-28T23:35:11.246Z,9.23
2018-11-28T23:37:40.138Z,8.80
2018-11-28T23:40:13.419Z,9.20
2018-11-28T23:42:41.524Z,9.40
2018-11-28T23:45:11.523Z,8.37
2018-11-28T23:47:39.642Z,8.63
2018-11-28T23:50:19.457Z,9.50
2018-11-28T23:52:47.937Z,9.00
2018-11-28T23:55:20.818Z,8.23
2018-11-28T23:57:48.976Z,8.40
